Time;durP1;ratioP1;P1;durP2;ratioP2;P2;SDS_P1;SDS_P2;PMS_P1;PMS_P2;Temp;Humidity;BMP_temperature;BMP_pressure;BME280_temperature;BME280_humidity;BME280_pressure;Samples;Min_cycle;Max_cycle;Signal;HPM_P1;HPM_P2
2021/05/06 00:30:28;;;;;;;2.90;2.50;;;7.70;83.90;;;;;;6272343;28;20041;-78
2021/05/06 00:33:29;;;;;;;4.05;2.85;;;7.70;84.10;;;;;;6272476;28;20045;-77
2021/05/06 00:36:32;;;;;;;3.50;2.15;;;7.80;84.50;;;;;;6272221;28;20045;-77
2021/05/06 00:39:36;;;;;;;5.80;2.75;;;7.80;83.90;;;;;;6273171;28;20049;-77
2021/05/06 00:42:46;;;;;;;4.40;2.42;;;7.80;84.10;;;;;;6272390;28;20076;-77
2021/05/06 01:02:38;;;;;;;2.40;1.80;;;7.90;83.70;;;;;;6271960;28;20586;-78
2021/05/06 01:05:42;;;;;;;1.60;1.20;;;7.90;83.60;;;;;;6272363;28;20049;-77
2021/05/06 01:08:46;;;;;;;2.63;2.35;;;8.00;83.40;;;;;;6272045;28;20110;-78
2021/05/06 01:11:52;;;;;;;4.40;1.92;;;8.00;83.50;;;;;;6271835;28;20045;-77
2021/05/06 01:14:55;;;;;;;1.85;1.75;;;8.00;83.30;;;;;;6272553;28;20057;-78
2021/05/06 01:17:56;;;;;;;3.65;1.85;;;8.00;83.10;;;;;;6271647;28;20052;-77
2021/05/06 01:21:00;;;;;;;3.13;2.30;;;8.00;83.10;;;;;;6270739;28;20512;-77
2021/05/06 01:24:02;;;;;;;4.18;1.63;;;8.10;82.90;;;;;;6271888;28;20079;-77
2021/05/06 01:27:08;;;;;;;1.90;1.70;;;8.00;83.00;;;;;;6272235;28;20491;-77
2021/05/06 01:30:20;;;;;;;7.47;1.92;;;8.10;82.90;;;;;;6271351;28;20055;-77
2021/05/06 01:33:28;;;;;;;1.95;1.67;;;8.10;82.90;;;;;;6271586;28;20052;-77
2021/05/06 01:36:34;;;;;;;2.15;1.92;;;8.10;82.80;;;;;;6271494;28;20071;-77
2021/05/06 01:42:58;;;;;;;3.63;1.40;;;8.00;82.60;;;;;;6272017;28;20045;-77
2021/05/06 01:49:34;;;;;;;2.10;1.83;;;8.10;82.80;;;;;;6270929;28;20094;-78
2021/05/06 01:59:18;;;;;;;6.22;1.50;;;8.10;82.70;;;;;;6271649;28;20562;-77
2021/05/06 02:02:19;;;;;;;3.35;1.70;;;8.10;82.40;;;;;;6271205;28;20041;-77
2021/05/06 02:05:21;;;;;;;3.60;1.88;;;8.10;82.30;;;;;;6271702;28;20045;-77
2021/05/06 02:08:24;;;;;;;3.03;2.00;;;8.20;82.90;;;;;;6274321;28;20128;-77
2021/05/06 02:11:25;;;;;;;3.63;1.70;;;8.20;83.60;;;;;;6276010;28;20049;-77
2021/05/06 02:14:27;;;;;;;3.13;2.60;;;8.10;84.00;;;;;;6275578;28;20080;-77
2021/05/06 02:17:28;;;;;;;4.43;2.00;;;8.10;84.40;;;;;;6276151;28;20422;-77
2021/05/06 02:20:29;;;;;;;2.70;2.20;;;8.10;84.50;;;;;;6275423;28;20525;-78
2021/05/06 02:23:33;;;;;;;6.22;2.25;;;8.10;84.60;;;;;;6275167;28;20634;-77
2021/05/06 02:26:35;;;;;;;6.00;2.10;;;8.10;84.40;;;;;;6275738;28;20051;-77
2021/05/06 02:29:36;;;;;;;3.65;1.98;;;8.00;84.50;;;;;;6275033;28;20072;-77
2021/05/06 02:32:38;;;;;;;4.45;2.08;;;8.00;84.10;;;;;;6275544;28;20124;-78
2021/05/06 02:35:40;;;;;;;7.72;3.53;;;8.00;84.80;;;;;;6275735;28;20414;-78
2021/05/06 02:38:42;;;;;;;4.50;2.13;;;8.00;84.10;;;;;;6274767;28;20045;-77
2021/05/06 02:41:43;;;;;;;5.07;2.30;;;8.00;84.90;;;;;;6275209;28;20072;-77
2021/05/06 02:44:44;;;;;;;7.35;1.77;;;7.90;84.30;;;;;;6275445;28;20171;-77
2021/05/06 02:47:46;;;;;;;3.72;1.92;;;7.90;83.90;;;;;;6275232;28;20128;-77
2021/05/06 02:50:52;;;;;;;3.45;2.03;;;7.90;84.00;;;;;;6275468;28;20081;-77
2021/05/06 02:53:54;;;;;;;2.08;1.83;;;7.90;84.10;;;;;;6274857;28;20487;-77
2021/05/06 02:57:00;;;;;;;7.30;2.30;;;7.90;83.90;;;;;;6274966;28;20045;-78
2021/05/06 03:03:22;;;;;;;5.93;2.35;;;8.00;83.40;;;;;;6275190;28;20108;-77
2021/05/06 03:06:26;;;;;;;2.45;1.83;;;8.00;83.30;;;;;;6274646;28;20099;-77
2021/05/06 03:09:37;;;;;;;2.30;2.05;;;8.00;83.10;;;;;;6274204;28;20135;-76
2021/05/06 03:12:59;;;;;;;4.88;3.95;;;8.10;82.90;;;;;;6274786;28;20124;-78
2021/05/06 03:22:41;;;;;;;10.25;2.10;;;8.10;82.30;;;;;;6273824;28;20507;-78
2021/05/06 03:25:43;;;;;;;2.45;2.00;;;8.20;82.30;;;;;;6274036;28;20068;-77
2021/05/06 03:28:48;;;;;;;4.80;1.77;;;8.20;82.30;;;;;;6274283;28;20053;-78
2021/05/06 03:35:17;;;;;;;3.72;1.83;;;8.20;82.40;;;;;;6272294;28;20061;-77
2021/05/06 03:41:52;;;;;;;2.42;2.05;;;8.30;82.50;;;;;;6273858;28;20045;-77
2021/05/06 03:45:12;;;;;;;6.60;2.55;;;8.20;83.00;;;;;;6273855;28;20073;-77
2021/05/06 04:15:27;;;;;;;6.85;2.97;;;7.80;90.80;;;;;;6273819;28;20045;-78
2021/05/06 04:18:32;;;;;;;6.18;2.78;;;7.80;91.40;;;;;;6272539;28;20056;-79
2021/05/06 04:21:42;;;;;;;7.45;2.88;;;7.80;91.90;;;;;;6272505;28;20533;-78
2021/05/06 04:28:20;;;;;;;4.80;3.13;;;7.80;92.60;;;;;;6273268;28;20618;-77
2021/05/06 04:38:07;;;;;;;8.73;4.78;;;7.60;95.90;;;;;;6273242;28;20519;-78
2021/05/06 04:41:19;;;;;;;3.97;2.85;;;7.70;97.10;;;;;;6272980;28;20056;-77
2021/05/06 04:54:24;;;;;;;5.13;3.13;;;7.70;99.90;;;;;;6272356;28;20041;-78
2021/05/06 04:57:47;;;;;;;6.45;3.83;;;7.70;99.90;;;;;;6272409;28;20127;-78
2021/05/06 05:04:19;;;;;;;5.80;3.38;;;7.80;99.90;;;;;;6272564;28;20498;-79
2021/05/06 05:07:23;;;;;;;4.63;3.85;;;7.80;99.90;;;;;;6273150;28;20044;-80
2021/05/06 05:10:41;;;;;;;4.53;3.08;;;7.80;99.90;;;;;;6272324;28;20530;-79
2021/05/06 05:13:55;;;;;;;8.15;4.03;;;7.80;99.90;;;;;;6272180;28;20041;-78
2021/05/06 05:20:21;;;;;;;4.55;3.45;;;7.80;99.90;;;;;;6272030;28;20041;-79
2021/05/06 05:23:37;;;;;;;5.15;3.58;;;7.80;99.90;;;;;;6272442;28;20101;-79
2021/05/06 05:26:38;;;;;;;6.65;3.90;;;7.80;99.90;;;;;;6271295;28;20094;-78
2021/05/06 05:29:40;;;;;;;8.02;3.65;;;7.80;99.90;;;;;;6271498;28;20065;-78
2021/05/06 05:32:41;;;;;;;6.03;3.22;;;7.70;99.90;;;;;;6272407;28;20081;-79
2021/05/06 05:35:52;;;;;;;4.78;3.15;;;7.70;99.90;;;;;;6272447;28;20111;-79
2021/05/06 05:38:59;;;;;;;8.55;4.15;;;7.70;99.90;;;;;;6272065;28;20045;-79
2021/05/06 05:42:12;;;;;;;8.52;4.53;;;7.70;99.90;;;;;;6272958;28;20098;-78
2021/05/06 05:55:14;;;;;;;5.53;4.10;;;7.90;99.90;;;;;;6277074;28;20057;-77
2021/05/06 05:58:15;;;;;;;7.00;4.03;;;7.90;99.90;;;;;;6275968;28;20076;-78
2021/05/06 06:01:17;;;;;;;8.30;4.47;;;7.90;99.90;;;;;;6275852;28;20654;-78
2021/05/06 06:04:18;;;;;;;5.60;4.07;;;7.80;99.90;;;;;;6263994;28;20049;-78
2021/05/06 06:07:20;;;;;;;6.38;3.58;;;7.80;99.90;;;;;;6277005;28;20139;-78
2021/05/06 06:10:22;;;;;;;4.53;3.72;;;7.80;99.90;;;;;;6284488;28;20048;-78
2021/05/06 06:13:25;;;;;;;13.20;3.85;;;7.90;99.90;;;;;;6276604;28;20087;-77
2021/05/06 06:16:28;;;;;;;6.30;3.88;;;7.90;99.90;;;;;;6276408;28;20037;-78
2021/05/06 06:19:34;;;;;;;4.68;3.95;;;8.00;99.90;;;;;;6276318;28;20445;-79
2021/05/06 06:22:36;;;;;;;6.57;4.18;;;8.00;99.90;;;;;;6276089;28;20414;-79
2021/05/06 06:25:38;;;;;;;5.80;4.20;;;8.00;99.90;;;;;;6267242;28;20045;-78
2021/05/06 06:28:41;;;;;;;7.25;3.67;;;8.10;99.90;;;;;;6256943;28;20128;-79
2021/05/06 06:31:45;;;;;;;6.15;3.25;;;8.20;99.90;;;;;;6251742;28;20045;-77
2021/05/06 06:34:48;;;;;;;5.43;3.70;;;8.20;99.90;;;;;;6251066;28;20108;-77
2021/05/06 06:37:50;;;;;;;8.20;3.45;;;8.30;99.90;;;;;;6250961;28;20046;-78
2021/05/06 06:40:51;;;;;;;6.03;3.30;;;8.30;99.90;;;;;;6271768;28;20511;-79
2021/05/06 06:43:55;;;;;;;7.68;3.53;;;8.30;99.90;;;;;;6276328;28;20135;-77
2021/05/06 06:47:06;;;;;;;4.35;3.67;;;8.30;99.90;;;;;;6276536;28;20048;-78
2021/05/06 06:50:08;;;;;;;6.38;4.30;;;8.30;99.90;;;;;;6275844;28;20122;-77
2021/05/06 06:53:12;;;;;;;4.43;3.30;;;8.30;99.90;;;;;;6275133;28;20072;-78
2021/05/06 06:56:14;;;;;;;6.25;4.05;;;8.20;99.90;;;;;;6275373;28;20051;-77
2021/05/06 06:59:15;;;;;;;9.48;3.83;;;8.20;99.90;;;;;;6275681;28;20080;-77
2021/05/06 07:02:17;;;;;;;5.30;3.95;;;8.20;99.90;;;;;;6275015;28;20041;-78
2021/05/06 07:05:18;;;;;;;8.05;3.38;;;8.20;99.90;;;;;;6275251;28;20072;-79
2021/05/06 07:08:23;;;;;;;11.60;4.65;;;8.30;99.90;;;;;;6275026;28;20107;-78
2021/05/06 07:11:24;;;;;;;7.38;4.82;;;8.40;99.90;;;;;;6275629;28;20051;-79
2021/05/06 07:14:28;;;;;;;7.93;2.97;;;8.50;99.90;;;;;;6275232;28;20175;-79
2021/05/06 07:17:29;;;;;;;5.70;3.50;;;8.50;99.90;;;;;;6275738;28;20503;-79
2021/05/06 07:20:31;;;;;;;8.65;3.65;;;8.50;99.90;;;;;;6274806;28;20065;-80
2021/05/06 07:23:34;;;;;;;5.85;3.47;;;8.60;99.90;;;;;;6275356;28;20049;-78
2021/05/06 07:26:35;;;;;;;7.00;4.18;;;8.60;99.90;;;;;;6273856;28;20041;-78
2021/05/06 07:29:37;;;;;;;5.57;4.10;;;8.70;99.90;;;;;;6252668;28;20048;-80
2021/05/06 07:32:38;;;;;;;6.30;4.55;;;8.70;99.90;;;;;;6250042;28;20038;-79
2021/05/06 07:35:40;;;;;;;8.38;3.92;;;8.80;99.90;;;;;;6250262;28;20081;-77
2021/05/06 07:38:42;;;;;;;7.35;4.50;;;8.80;99.90;;;;;;6249154;28;20055;-79
2021/05/06 07:41:44;;;;;;;5.80;3.28;;;8.80;99.90;;;;;;6249058;28;20133;-77
2021/05/06 07:44:45;;;;;;;7.70;3.80;;;8.80;99.90;;;;;;6249069;28;20495;-78
2021/05/06 07:47:47;;;;;;;6.93;4.57;;;8.90;99.90;;;;;;6249414;28;20191;-78
2021/05/06 07:50:48;;;;;;;8.30;4.13;;;8.90;99.90;;;;;;6249096;28;20415;-78
2021/05/06 07:53:52;;;;;;;4.82;3.42;;;8.90;99.90;;;;;;6250012;28;20199;-77
2021/05/06 07:56:53;;;;;;;5.07;3.70;;;9.00;99.90;;;;;;6250081;28;20041;-77
2021/05/06 07:59:55;;;;;;;5.03;4.53;;;9.00;99.90;;;;;;6248365;28;20186;-78
2021/05/06 08:02:56;;;;;;;4.85;3.60;;;9.10;99.90;;;;;;6249735;28;20082;-79
2021/05/06 08:05:58;;;;;;;9.32;3.90;;;9.00;99.90;;;;;;6247674;28;20045;-77
2021/05/06 08:09:00;;;;;;;7.03;3.50;;;9.10;99.90;;;;;;6248785;28;20096;-79
2021/05/06 08:12:03;;;;;;;4.07;3.13;;;9.20;99.90;;;;;;6248551;28;20124;-78
2021/05/06 08:15:07;;;;;;;8.02;3.70;;;9.30;99.90;;;;;;6271100;28;20140;-79
2021/05/06 08:18:09;;;;;;;6.35;3.70;;;9.40;99.90;;;;;;6273236;28;20049;-79
2021/05/06 08:21:10;;;;;;;7.63;3.53;;;9.50;99.90;;;;;;6273081;28;20075;-79
2021/05/06 08:24:14;;;;;;;7.43;2.92;;;9.60;99.40;;;;;;6273292;28;20135;-79
2021/05/06 08:27:15;;;;;;;3.78;3.35;;;9.80;98.70;;;;;;6272660;28;20076;-79
2021/05/06 08:30:17;;;;;;;15.18;5.18;;;9.80;98.60;;;;;;6273066;28;20132;-79
2021/05/06 08:33:18;;;;;;;5.05;3.67;;;9.90;98.50;;;;;;6273354;28;20128;-79
2021/05/06 08:36:19;;;;;;;8.30;3.45;;;10.00;98.40;;;;;;6273725;28;20103;-81
2021/05/06 08:39:22;;;;;;;8.00;4.85;;;10.10;97.80;;;;;;6273361;28;20045;-79
2021/05/06 08:42:23;;;;;;;12.88;5.22;;;10.20;97.20;;;;;;6272387;28;20115;-78
2021/05/06 08:45:28;;;;;;;8.68;3.65;;;10.30;97.00;;;;;;6272877;28;20068;-79
2021/05/06 08:48:31;;;;;;;6.82;2.92;;;10.30;96.50;;;;;;6272969;28;20037;-78
2021/05/06 08:51:34;;;;;;;5.93;3.00;;;10.40;96.10;;;;;;6273435;28;20098;-79
2021/05/06 08:54:37;;;;;;;5.10;3.35;;;10.40;95.00;;;;;;6273655;28;20417;-78
2021/05/06 08:57:38;;;;;;;3.70;3.15;;;10.40;95.00;;;;;;6273128;28;20131;-78
2021/05/06 09:00:40;;;;;;;7.28;3.25;;;10.40;95.00;;;;;;6272146;28;20136;-78
2021/05/06 09:03:41;;;;;;;12.32;3.03;;;10.40;95.00;;;;;;6273278;28;20053;-78
2021/05/06 09:06:54;;;;;;;4.43;3.10;;;10.40;95.10;;;;;;6272633;28;20511;-78
2021/05/06 09:09:56;;;;;;;4.25;3.33;;;10.30;95.10;;;;;;6271998;28;20179;-79
2021/05/06 09:12:57;;;;;;;4.55;2.92;;;10.40;95.30;;;;;;6271813;28;20128;-78
2021/05/06 09:15:59;;;;;;;5.80;4.53;;;10.50;95.20;;;;;;6272386;28;20139;-78
2021/05/06 09:19:04;;;;;;;6.97;3.47;;;10.50;94.60;;;;;;6275208;28;20060;-78
2021/05/06 09:22:06;;;;;;;5.32;3.42;;;10.60;94.40;;;;;;6274315;28;20048;-78
2021/05/06 09:25:35;;;;;;;6.80;4.22;;;10.70;94.40;;;;;;6277864;28;20045;-79
2021/05/06 09:28:36;;;;;;;6.10;3.22;;;10.80;94.10;;;;;;6273614;28;20037;-79
2021/05/06 09:31:39;;;;;;;8.52;3.65;;;10.80;93.40;;;;;;6257453;28;20046;-79
2021/05/06 09:34:42;;;;;;;9.75;4.00;;;10.80;93.60;;;;;;6253019;28;20136;-80
2021/05/06 09:37:44;;;;;;;6.63;4.20;;;10.80;93.50;;;;;;6253467;28;20047;-77
2021/05/06 09:40:50;;;;;;;6.32;3.50;;;10.80;93.50;;;;;;6253661;28;20061;-80
2021/05/06 09:43:52;;;;;;;4.93;3.60;;;10.90;93.30;;;;;;6253354;28;20085;-79
2021/05/06 09:46:56;;;;;;;8.60;3.47;;;10.90;93.40;;;;;;6253742;28;20053;-79
2021/05/06 09:49:58;;;;;;;5.28;3.35;;;10.90;92.90;;;;;;6252522;28;20049;-79
2021/05/06 09:52:59;;;;;;;7.75;4.97;;;11.00;92.60;;;;;;6252832;28;20050;-79
2021/05/06 09:56:03;;;;;;;6.47;3.65;;;11.00;92.30;;;;;;6252660;28;20065;-79
2021/05/06 09:59:05;;;;;;;7.13;3.58;;;11.00;92.00;;;;;;6252670;28;20486;-79
2021/05/06 10:02:09;;;;;;;9.30;2.78;;;10.90;92.40;;;;;;6252782;28;20099;-78
2021/05/06 10:05:13;;;;;;;5.95;3.45;;;11.00;89.20;;;;;;6252401;28;20045;-79
2021/05/06 10:08:16;;;;;;;4.68;2.42;;;10.90;89.90;;;;;;6251919;28;20046;-79
2021/05/06 10:11:19;;;;;;;3.85;2.47;;;11.00;89.40;;;;;;6252441;28;20089;-78
2021/05/06 10:14:22;;;;;;;6.72;4.53;;;11.00;86.60;;;;;;6268228;28;20106;-79
2021/05/06 10:17:24;;;;;;;7.18;2.95;;;11.00;85.60;;;;;;6277794;28;20045;-79
2021/05/06 10:20:26;;;;;;;2.80;2.20;;;11.00;84.20;;;;;;6276713;28;20045;-78
2021/05/06 10:23:28;;;;;;;6.20;4.45;;;11.10;83.60;;;;;;6277861;28;20045;-79
2021/05/06 10:26:31;;;;;;;11.27;2.78;;;11.10;83.30;;;;;;6276903;28;20048;-79
2021/05/06 10:29:32;;;;;;;4.10;2.33;;;11.10;84.40;;;;;;6273420;28;20134;-79
2021/05/06 10:32:35;;;;;;;6.65;2.22;;;11.20;83.40;;;;;;6278093;28;20449;-79
2021/05/06 10:35:37;;;;;;;4.60;2.90;;;11.20;81.20;;;;;;6280718;28;20053;-78
2021/05/06 10:38:42;;;;;;;5.30;2.10;;;11.20;81.60;;;;;;6280771;28;20045;-79
2021/05/06 10:41:44;;;;;;;1.92;1.50;;;11.10;81.80;;;;;;6280653;28;20096;-78
2021/05/06 10:44:45;;;;;;;3.95;1.98;;;11.10;81.60;;;;;;6281317;28;20045;-79
2021/05/06 10:47:55;;;;;;;5.22;2.08;;;11.10;80.80;;;;;;6280794;28;20494;-79
2021/05/06 10:50:56;;;;;;;2.22;1.73;;;11.00;81.50;;;;;;6280236;28;20056;-78
2021/05/06 10:53:58;;;;;;;2.92;1.98;;;11.00;82.10;;;;;;6280239;28;20049;-79
2021/05/06 10:57:01;;;;;;;3.72;1.55;;;11.10;83.20;;;;;;6280354;28;20045;-79
2021/05/06 11:00:22;;;;;;;2.10;1.83;;;11.20;82.80;;;;;;6281123;28;20049;-78
2021/05/06 11:03:25;;;;;;;2.25;2.05;;;11.10;82.00;;;;;;6281113;28;20126;-79
2021/05/06 11:06:41;;;;;;;1.55;1.38;;;11.10;83.80;;;;;;6280869;28;20506;-79
2021/05/06 11:10:03;;;;;;;3.33;1.42;;;11.00;85.60;;;;;;6279017;28;20057;-79
2021/05/06 11:13:05;;;;;;;2.70;1.50;;;10.90;86.20;;;;;;6280487;28;20055;-80
2021/05/06 11:16:15;;;;;;;1.73;1.63;;;10.90;86.80;;;;;;6279375;28;20052;-78
2021/05/06 11:19:40;;;;;;;5.07;1.58;;;10.90;87.50;;;;;;6280881;28;20092;-80
2021/05/06 11:22:54;;;;;;;3.35;1.75;;;10.90;87.60;;;;;;6281712;28;20041;-79
2021/05/06 11:26:16;;;;;;;1.65;1.55;;;10.90;87.60;;;;;;6282285;28;20079;-79
2021/05/06 11:29:28;;;;;;;1.90;1.73;;;10.90;87.30;;;;;;6280668;28;20045;-80
2021/05/06 11:32:35;;;;;;;4.78;1.73;;;10.80;86.00;;;;;;6267781;28;20063;-78
2021/05/06 11:35:55;;;;;;;3.13;1.42;;;10.70;88.30;;;;;;6256180;28;20049;-81
2021/05/06 11:38:56;;;;;;;28.20;14.35;;;10.80;88.40;;;;;;6255353;28;20049;-79
2021/05/06 11:41:57;;;;;;;4.57;2.53;;;10.70;88.80;;;;;;6255362;28;20107;-80
2021/05/06 11:45:17;;;;;;;2.25;1.63;;;10.80;89.30;;;;;;6254428;28;20069;-80
2021/05/06 11:48:32;;;;;;;1.83;1.58;;;10.90;89.20;;;;;;6255518;28;20045;-80
2021/05/06 11:51:37;;;;;;;1.40;1.23;;;10.90;87.50;;;;;;6255720;28;20414;-79
2021/05/06 11:54:38;;;;;;;2.40;1.33;;;10.90;85.00;;;;;;6255733;28;20049;-79
2021/05/06 11:57:48;;;;;;;4.32;1.48;;;10.90;85.90;;;;;;6254299;28;20080;-80
2021/05/06 12:00:52;;;;;;;2.70;1.30;;;10.90;86.10;;;;;;6252522;28;20045;-80
2021/05/06 12:03:54;;;;;;;2.25;1.05;;;11.00;86.30;;;;;;6254342;28;20060;-79
2021/05/06 12:06:56;;;;;;;1.88;1.33;;;11.10;86.20;;;;;;6254489;28;20103;-79
2021/05/06 12:10:07;;;;;;;1.20;1.10;;;11.20;86.60;;;;;;6254310;28;20148;-79
2021/05/06 12:13:09;;;;;;;3.78;1.83;;;11.40;84.70;;;;;;6253196;28;20045;-80
2021/05/06 12:16:17;;;;;;;3.95;2.25;;;11.40;85.20;;;;;;6254153;28;20060;-78
2021/05/06 12:19:18;;;;;;;1.23;1.17;;;11.50;84.00;;;;;;6254913;28;20065;-81
2021/05/06 12:22:20;;;;;;;1.48;0.90;;;11.60;83.90;;;;;;6254522;28;20061;-80
2021/05/06 12:25:21;;;;;;;0.90;0.90;;;11.60;82.70;;;;;;6254100;28;20065;-80
2021/05/06 12:28:23;;;;;;;6.68;6.05;;;11.60;83.30;;;;;;6255141;28;20092;-80
2021/05/06 12:31:26;;;;;;;7.35;2.85;;;11.40;84.10;;;;;;6256354;28;20077;-80
2021/05/06 12:34:27;;;;;;;1.58;1.25;;;11.30;85.50;;;;;;6279149;28;20049;-78
2021/05/06 12:37:31;;;;;;;1.15;0.90;;;11.20;85.00;;;;;;6279374;28;20498;-81
2021/05/06 12:40:35;;;;;;;0.80;0.80;;;11.10;85.00;;;;;;6279126;28;20045;-79
2021/05/06 12:43:49;;;;;;;1.98;1.23;;;10.90;86.10;;;;;;6279730;28;20049;-79
2021/05/06 12:46:51;;;;;;;1.52;1.00;;;10.80;88.60;;;;;;6280270;28;20074;-78
2021/05/06 12:50:09;;;;;;;1.60;1.50;;;10.70;88.80;;;;;;6279120;28;20118;-80
2021/05/06 12:53:11;;;;;;;2.03;1.30;;;10.50;90.70;;;;;;6281213;28;20111;-79
2021/05/06 12:56:25;;;;;;;1.33;1.20;;;10.40;91.10;;;;;;6280034;28;20566;-79
2021/05/06 12:59:28;;;;;;;1.10;1.00;;;10.40;91.50;;;;;;6278999;28;20053;-80
2021/05/06 13:02:31;;;;;;;1.10;0.90;;;10.40;91.70;;;;;;6278479;28;20071;-80
2021/05/06 13:05:35;;;;;;;3.40;1.58;;;10.30;92.80;;;;;;6278551;28;20079;-79
2021/05/06 13:08:37;;;;;;;2.30;1.33;;;10.30;93.30;;;;;;6278006;28;20461;-81
2021/05/06 13:11:39;;;;;;;2.15;1.25;;;10.30;93.40;;;;;;6279497;28;20041;-79
2021/05/06 13:14:48;;;;;;;1.70;1.02;;;10.30;93.80;;;;;;6279063;28;20129;-81
2021/05/06 13:17:51;;;;;;;1.40;1.30;;;10.30;94.50;;;;;;6279074;28;20059;-79
2021/05/06 13:20:52;;;;;;;1.13;1.10;;;10.40;94.10;;;;;;6278667;28;20068;-80
2021/05/06 13:23:54;;;;;;;1.20;1.10;;;10.40;94.00;;;;;;6277970;28;20067;-80
2021/05/06 13:26:56;;;;;;;1.20;0.77;;;10.50;94.10;;;;;;6278517;28;20092;-79
2021/05/06 13:29:58;;;;;;;1.08;1.08;;;10.50;93.90;;;;;;6278301;28;20076;-80
2021/05/06 13:33:14;;;;;;;1.23;1.13;;;10.40;94.70;;;;;;6270553;28;20080;-79
2021/05/06 13:36:17;;;;;;;0.93;0.80;;;10.30;95.40;;;;;;6278572;28;20519;-80
2021/05/06 13:39:18;;;;;;;1.05;0.95;;;10.40;95.90;;;;;;6279196;28;20073;-81
2021/05/06 13:42:20;;;;;;;1.25;0.90;;;10.30;95.80;;;;;;6278683;28;20044;-81
2021/05/06 13:45:21;;;;;;;1.52;0.90;;;10.30;97.10;;;;;;6278384;28;20068;-81
2021/05/06 13:48:23;;;;;;;1.20;1.10;;;10.30;97.30;;;;;;6277308;28;20117;-79
2021/05/06 13:51:26;;;;;;;0.82;0.80;;;10.30;97.50;;;;;;6278488;28;20542;-80
2021/05/06 13:54:28;;;;;;;0.88;0.80;;;10.30;97.90;;;;;;6277224;28;20099;-80
2021/05/06 13:57:31;;;;;;;1.15;1.05;;;10.20;98.30;;;;;;6277927;28;20048;-80
2021/05/06 14:00:33;;;;;;;1.10;0.93;;;10.20;98.60;;;;;;6277972;28;20099;-79
2021/05/06 14:03:36;;;;;;;3.13;1.30;;;10.10;99.70;;;;;;6280903;28;20517;-80
2021/05/06 14:06:37;;;;;;;1.25;1.13;;;10.10;99.90;;;;;;6282687;28;20578;-80
2021/05/06 14:09:38;;;;;;;5.07;1.52;;;10.10;99.90;;;;;;6282627;28;20506;-79
2021/05/06 14:12:40;;;;;;;1.30;1.20;;;10.10;99.90;;;;;;6283476;28;20041;-79
2021/05/06 14:15:41;;;;;;;3.10;1.08;;;10.10;99.90;;;;;;6283191;28;20053;-80
2021/05/06 14:18:43;;;;;;;2.40;1.90;;;10.00;99.90;;;;;;6282943;28;20461;-80
2021/05/06 14:21:47;;;;;;;4.30;2.40;;;9.90;99.90;;;;;;6283319;28;20041;-80
2021/05/06 14:24:48;;;;;;;6.18;2.90;;;9.70;99.90;;;;;;6282987;28;20048;-79
2021/05/06 14:27:49;;;;;;;3.95;3.00;;;9.70;99.90;;;;;;6283413;28;20049;-81
2021/05/06 14:30:51;;;;;;;3.75;3.35;;;9.70;99.90;;;;;;6295302;28;20071;-80
2021/05/06 14:33:53;;;;;;;3.40;1.98;;;9.70;99.90;;;;;;6290402;28;20056;-80
2021/05/06 14:36:55;;;;;;;2.38;1.50;;;9.60;99.90;;;;;;6293408;28;20075;-80
2021/05/06 14:39:56;;;;;;;3.00;1.50;;;9.60;99.90;;;;;;6288325;28;20132;-80
2021/05/06 14:42:57;;;;;;;7.72;2.80;;;9.70;99.90;;;;;;6284145;28;20052;-80
2021/05/06 14:45:59;;;;;;;9.63;4.55;;;9.70;99.90;;;;;;6282490;28;20128;-80
2021/05/06 14:49:01;;;;;;;3.13;2.70;;;9.60;99.90;;;;;;6282384;28;20045;-80
2021/05/06 14:52:03;;;;;;;7.90;4.57;;;9.50;99.90;;;;;;6283085;28;20098;-79
2021/05/06 14:55:07;;;;;;;6.35;3.40;;;9.50;99.90;;;;;;6284686;28;20049;-80
2021/05/06 14:58:09;;;;;;;17.38;9.43;;;9.60;99.90;;;;;;6282032;28;20068;-81
2021/05/06 15:01:10;;;;;;;15.63;6.95;;;9.70;99.90;;;;;;6281079;28;20120;-79
2021/05/06 15:04:12;;;;;;;6.78;3.85;;;9.70;99.90;;;;;;6281492;28;20037;-78
2021/05/06 15:07:14;;;;;;;4.93;2.80;;;9.80;99.90;;;;;;6281036;28;20621;-80
2021/05/06 15:10:15;;;;;;;10.43;5.95;;;10.00;99.90;;;;;;6280802;28;20546;-81
2021/05/06 15:13:17;;;;;;;2.25;2.05;;;10.20;99.90;;;;;;6281921;28;20049;-80
2021/05/06 15:16:18;;;;;;;5.57;4.38;;;10.30;99.90;;;;;;6281369;28;20533;-80
2021/05/06 15:19:20;;;;;;;3.58;2.75;;;10.40;99.90;;;;;;6281872;28;20060;-81
2021/05/06 15:22:22;;;;;;;2.97;2.40;;;10.40;99.90;;;;;;6281035;28;20041;-78
2021/05/06 15:25:24;;;;;;;2.35;1.40;;;10.60;99.90;;;;;;6276602;28;20091;-77
2021/05/06 15:28:26;;;;;;;3.28;1.77;;;10.80;99.90;;;;;;6276875;28;20127;-79
2021/05/06 15:31:27;;;;;;;1.83;1.65;;;10.80;99.90;;;;;;6275656;28;20041;-79
2021/05/06 15:34:29;;;;;;;1.65;1.40;;;10.80;99.90;;;;;;6274670;28;20076;-79
2021/05/06 15:37:31;;;;;;;1.88;1.52;;;10.80;99.90;;;;;;6275986;28;20128;-78
2021/05/06 15:40:32;;;;;;;1.67;1.52;;;10.90;99.90;;;;;;6259470;28;20124;-78
2021/05/06 15:43:34;;;;;;;1.27;1.08;;;10.80;99.90;;;;;;6253509;28;20442;-77
2021/05/06 15:46:35;;;;;;;1.52;0.88;;;10.70;99.90;;;;;;6253163;28;20062;-78
2021/05/06 15:49:40;;;;;;;1.40;1.30;;;10.80;99.90;;;;;;6252316;28;20129;-78
2021/05/06 15:52:43;;;;;;;3.08;1.55;;;11.00;99.90;;;;;;6251960;28;20042;-79
2021/05/06 15:55:45;;;;;;;0.98;0.95;;;10.90;99.90;;;;;;6252544;28;20053;-78
2021/05/06 15:58:46;;;;;;;2.13;0.98;;;10.90;99.90;;;;;;6253017;28;20057;-78
2021/05/06 16:01:48;;;;;;;3.75;1.35;;;10.80;99.90;;;;;;6251103;28;20041;-78
2021/05/06 16:04:50;;;;;;;4.30;1.30;;;10.80;99.90;;;;;;6251328;28;20046;-79
2021/05/06 16:07:52;;;;;;;4.13;1.50;;;10.80;99.90;;;;;;6250565;28;20080;-79
2021/05/06 16:10:54;;;;;;;1.63;1.45;;;10.80;99.90;;;;;;6251099;28;20049;-77
2021/05/06 16:13:55;;;;;;;11.65;4.80;;;10.80;99.90;;;;;;6250089;28;20065;-78
2021/05/06 16:16:57;;;;;;;5.25;4.25;;;10.70;99.90;;;;;;6249223;28;20076;-78
2021/05/06 16:19:59;;;;;;;2.95;1.42;;;10.80;99.90;;;;;;6249381;28;20140;-77
2021/05/06 16:23:01;;;;;;;1.80;1.45;;;10.90;99.90;;;;;;6250350;28;20057;-78
2021/05/06 16:26:02;;;;;;;3.33;1.23;;;10.80;99.90;;;;;;6265217;28;20075;-78
2021/05/06 16:29:04;;;;;;;3.05;1.40;;;10.80;99.90;;;;;;6276432;28;20052;-78
2021/05/06 16:32:06;;;;;;;4.75;2.45;;;10.70;99.90;;;;;;6274810;28;20510;-77
2021/05/06 16:35:11;;;;;;;2.67;2.47;;;10.50;99.90;;;;;;6274775;28;20085;-78
2021/05/06 16:38:15;;;;;;;3.67;2.75;;;10.40;99.90;;;;;;6275596;28;20041;-78
2021/05/06 16:41:16;;;;;;;3.95;3.03;;;10.30;99.90;;;;;;6275357;28;20053;-78
2021/05/06 16:44:27;;;;;;;2.85;2.65;;;10.10;99.90;;;;;;6276151;28;20102;-78
2021/05/06 16:47:28;;;;;;;4.38;2.95;;;10.00;99.90;;;;;;6280782;28;20049;-78
2021/05/06 16:50:30;;;;;;;4.50;3.63;;;9.90;99.90;;;;;;6303649;28;20103;-79
2021/05/06 16:53:32;;;;;;;5.32;3.72;;;10.00;99.90;;;;;;6302779;28;20043;-80
2021/05/06 16:56:33;;;;;;;7.75;4.35;;;10.00;99.90;;;;;;6303339;28;20059;-78
2021/05/06 16:59:37;;;;;;;4.50;3.28;;;9.90;99.90;;;;;;6303209;28;20049;-82
2021/05/06 17:02:40;;;;;;;8.75;3.03;;;9.70;99.90;;;;;;6301179;28;20044;-77
2021/05/06 17:05:42;;;;;;;4.18;3.47;;;9.60;99.90;;;;;;6300525;28;20049;-78
2021/05/06 17:08:43;;;;;;;7.72;3.35;;;9.50;99.90;;;;;;6299708;28;20049;-80
2021/05/06 17:11:45;;;;;;;6.93;4.25;;;9.40;99.90;;;;;;6293075;28;20044;-79
2021/05/06 17:14:46;;;;;;;7.13;4.63;;;9.40;99.90;;;;;;6279354;28;20075;-77
2021/05/06 17:17:47;;;;;;;7.13;5.28;;;9.40;99.90;;;;;;6274825;28;20515;-77
2021/05/06 17:20:50;;;;;;;10.27;5.38;;;9.40;99.90;;;;;;6274361;28;20090;-78
2021/05/06 17:23:52;;;;;;;12.25;9.32;;;9.40;99.90;;;;;;6273067;28;20303;-78
2021/05/06 17:26:53;;;;;;;9.45;6.47;;;9.50;99.90;;;;;;6273594;28;20115;-77
2021/05/06 17:29:55;;;;;;;7.97;6.47;;;9.60;99.90;;;;;;6272660;28;20041;-77
2021/05/06 17:32:57;;;;;;;8.15;6.00;;;9.80;99.90;;;;;;6273067;28;20051;-77
2021/05/06 17:35:59;;;;;;;11.43;6.35;;;9.80;99.90;;;;;;6272210;28;20052;-77
2021/05/06 17:39:00;;;;;;;8.13;6.32;;;9.80;99.90;;;;;;6265121;28;20086;-78
2021/05/06 17:42:02;;;;;;;8.85;6.55;;;9.80;99.90;;;;;;6252599;28;20042;-78
2021/05/06 17:45:05;;;;;;;7.70;5.68;;;9.80;99.90;;;;;;6252926;28;20049;-77
2021/05/06 17:48:08;;;;;;;13.02;9.05;;;9.80;99.90;;;;;;6252507;28;20076;-77
2021/05/06 17:51:10;;;;;;;12.00;6.07;;;9.90;99.90;;;;;;6252897;28;20115;-78
2021/05/06 17:54:12;;;;;;;5.65;5.05;;;9.90;99.90;;;;;;6252421;28;20049;-78
2021/05/06 17:57:13;;;;;;;6.95;5.40;;;9.90;99.90;;;;;;6253013;28;20175;-78
2021/05/06 18:00:16;;;;;;;8.70;4.38;;;10.00;99.90;;;;;;6251784;28;20653;-78
2021/05/06 18:03:17;;;;;;;7.50;4.28;;;10.00;99.90;;;;;;6251858;28;20868;-78
2021/05/06 18:06:19;;;;;;;4.55;3.70;;;10.10;99.90;;;;;;6252248;28;20108;-78
2021/05/06 18:09:26;;;;;;;4.78;3.38;;;10.10;99.90;;;;;;6252715;28;20065;-77
2021/05/06 18:12:27;;;;;;;4.65;2.80;;;10.20;99.90;;;;;;6253647;28;20128;-77
2021/05/06 18:15:29;;;;;;;5.00;3.33;;;10.20;99.90;;;;;;6254403;28;20463;-79
2021/05/06 18:18:32;;;;;;;3.58;2.50;;;10.30;99.90;;;;;;6278137;28;20118;-78
2021/05/06 18:21:35;;;;;;;3.05;2.85;;;10.30;99.90;;;;;;6278964;28;20511;-78